Time;durP1;ratioP1;P1;durP2;ratioP2;P2;SDS_P1;SDS_P2;PMS_P1;PMS_P2;Temp;Humidity;BMP_temperature;BMP_pressure;BME280_temperature;BME280_humidity;BME280_pressure;Samples;Min_cycle;Max_cycle;Signal;HPM_P1;HPM_P2
2022/09/21 00:00:43;;;;;;;0.82;0.50;;;;;;;22.68;32.54;100890.56;4740632;30;20545;-86
2022/09/21 00:03:09;;;;;;;0.40;0.40;;;;;;;22.79;32.57;100907.81;4736399;30;20037;-87
2022/09/21 00:05:34;;;;;;;1.05;0.47;;;;;;;22.67;32.51;100895.16;4734915;30;20402;-87
2022/09/21 00:08:01;;;;;;;0.40;0.40;;;;;;;22.67;32.21;100886.19;4736541;30;20138;-87
2022/09/21 00:10:27;;;;;;;1.00;0.50;;;;;;;22.74;32.16;100907.78;4718857;30;20471;-87
2022/09/21 00:12:52;;;;;;;0.50;0.50;;;;;;;22.74;32.30;100903.13;4747344;30;20047;-87
2022/09/21 00:15:18;;;;;;;0.70;0.40;;;;;;;22.78;32.48;100920.59;4736223;30;20063;-87
2022/09/21 00:17:44;;;;;;;0.30;0.30;;;;;;;22.71;32.38;100909.09;4719513;30;20066;-87
2022/09/21 00:20:10;;;;;;;0.50;0.50;;;;;;;22.75;32.32;100917.56;4759706;30;20039;-87
2022/09/21 00:22:36;;;;;;;0.55;0.50;;;;;;;22.76;32.33;100917.31;4743807;30;20035;-87
2022/09/21 00:25:02;;;;;;;1.08;0.38;;;;;;;22.69;32.52;100903.09;4756050;30;20032;-87
2022/09/21 00:27:29;;;;;;;0.60;0.60;;;;;;;22.58;32.28;100893.97;4740550;30;20031;-87
2022/09/21 00:29:55;;;;;;;1.27;0.30;;;;;;;22.71;32.35;100916.44;4734705;30;20123;-87
2022/09/21 00:32:23;;;;;;;0.30;0.30;;;;;;;22.75;32.14;100923.03;4731187;30;20028;-87
2022/09/21 00:34:49;;;;;;;0.50;0.50;;;;;;;22.74;32.27;100927.66;4734992;30;20035;-88
2022/09/21 00:37:14;;;;;;;0.30;0.30;;;;;;;22.68;32.23;100920.53;4738493;30;20039;-88
2022/09/21 00:39:40;;;;;;;0.40;0.40;;;;;;;22.71;32.20;100924.63;4739122;30;20347;-87
2022/09/21 00:42:09;;;;;;;0.40;0.40;;;;;;;22.74;32.27;100919.47;4756028;30;20497;-87
2022/09/21 00:44:35;;;;;;;0.35;0.35;;;;;;;22.77;32.18;100934.50;4749808;30;20024;-87
2022/09/21 00:47:10;;;;;;;0.40;0.40;;;;;;;22.75;32.33;100931.19;4723749;30;20042;-87
2022/09/21 00:49:36;;;;;;;0.63;0.40;;;;;;;22.77;32.32;100939.97;4744905;30;20032;-87
2022/09/21 00:52:03;;;;;;;0.52;0.47;;;;;;;22.74;32.22;100935.03;4748458;30;20062;-88
2022/09/21 00:54:32;;;;;;;1.42;0.45;;;;;;;;;;4725001;30;20047;-88
2022/09/21 00:57:01;;;;;;;0.52;0.40;;;;;;;22.77;32.37;100943.50;4760746;30;20043;-88
2022/09/21 00:59:30;;;;;;;0.40;0.40;;;;;;;22.68;32.17;100937.69;4720045;30;20137;-88
2022/09/21 01:01:55;;;;;;;0.40;0.40;;;;;;;22.73;32.20;100946.97;4748707;30;20048;-87
2022/09/21 01:04:21;;;;;;;0.45;0.45;;;;;;;;;;4721415;30;20449;-88
2022/09/21 01:06:46;;;;;;;0.45;0.40;;;;;;;22.61;32.20;100931.63;4757195;30;20072;-87
2022/09/21 01:09:12;;;;;;;0.40;0.40;;;;;;;22.60;32.26;100934.59;4757333;30;20059;-87
2022/09/21 01:11:42;;;;;;;0.70;0.50;;;;;;;22.67;32.17;100941.47;4741376;30;20528;-87
2022/09/21 01:14:43;;;;;;;0.50;0.50;;;;;;;22.75;32.14;100953.00;4744073;30;20028;-87
2022/09/21 01:17:30;;;;;;;0.40;0.40;;;;;;;22.74;32.11;100956.81;4737142;30;20542;-86
2022/09/21 01:20:17;;;;;;;0.30;0.30;;;;;;;22.77;32.33;100956.31;4759610;30;20043;-87
2022/09/21 01:23:01;;;;;;;0.60;0.50;;;;;;;22.66;32.19;100945.28;4740700;30;20047;-86
2022/09/21 01:25:31;;;;;;;;;;;;;;;22.77;32.13;100964.47;4761145;30;20134;-85
2022/09/21 01:28:19;;;;;;;0.55;0.40;;;;;;;22.72;32.02;100953.53;4762790;30;19952;-87
2022/09/21 01:30:48;;;;;;;1.50;0.40;;;;;;;22.66;32.15;100956.19;4759710;30;20040;-87
2022/09/21 01:33:29;;;;;;;1.08;0.50;;;;;;;22.67;32.19;100957.81;4752409;30;20024;-87
2022/09/21 01:36:00;;;;;;;0.50;0.45;;;;;;;22.68;32.16;100955.94;4740748;30;20127;-86
2022/09/21 01:38:29;;;;;;;0.63;0.30;;;;;;;22.61;32.14;100958.84;4745733;30;20038;-86
2022/09/21 01:40:57;;;;;;;0.40;0.40;;;;;;;22.63;32.17;100956.69;4725581;30;20067;-86
2022/09/21 01:43:27;;;;;;;0.68;0.50;;;;;;;22.72;32.19;100972.59;4745869;30;20040;-86
2022/09/21 01:45:54;;;;;;;0.45;0.40;;;;;;;22.72;32.13;100972.59;4743875;30;20032;-86
2022/09/21 01:48:20;;;;;;;0.30;0.30;;;;;;;22.64;32.26;100961.03;4746331;30;20097;-86
2022/09/21 01:50:49;;;;;;;0.60;0.40;;;;;;;22.69;32.01;100971.19;4743849;30;20042;-86
2022/09/21 01:53:21;;;;;;;0.60;0.60;;;;;;;22.63;32.21;100967.59;4722470;30;20086;-86
2022/09/21 01:56:06;;;;;;;0.70;0.40;;;;;;;22.62;32.23;100965.13;4747825;30;20106;-86
2022/09/21 01:58:40;;;;;;;0.40;0.40;;;;;;;22.73;32.33;100983.22;4746827;30;20051;-87
2022/09/21 02:01:06;;;;;;;0.80;0.47;;;;;;;22.66;32.16;100980.72;4748299;30;20143;-86
2022/09/21 02:03:37;;;;;;;0.40;0.40;;;;;;;22.73;32.07;100982.41;4745255;30;20027;-86
2022/09/21 02:06:03;;;;;;;0.43;0.43;;;;;;;22.67;32.23;100979.63;4766382;30;20035;-86
2022/09/21 02:08:30;;;;;;;0.88;0.43;;;;;;;22.64;32.26;100980.13;4736719;30;20034;-86
2022/09/21 02:10:56;;;;;;;0.98;0.40;;;;;;;22.68;32.14;100992.16;4743059;30;20413;-86
2022/09/21 02:13:24;;;;;;;0.40;0.40;;;;;;;22.72;32.10;100991.66;4729193;30;20029;-86
2022/09/21 02:16:54;;;;;;;0.40;0.40;;;;;;;22.67;32.14;100989.69;4748260;30;20043;-86
2022/09/21 02:19:36;;;;;;;0.52;0.50;;;;;;;22.72;31.99;101003.38;4737331;30;20478;-87
2022/09/21 02:22:28;;;;;;;0.32;0.32;;;;;;;22.73;32.14;101005.00;4729846;30;20024;-87
2022/09/21 02:24:56;;;;;;;0.55;0.50;;;;;;;22.68;32.15;100996.81;4731670;30;20501;-86
2022/09/21 02:27:50;;;;;;;1.05;0.40;;;;;;;22.74;32.11;101003.13;4741320;30;20368;-86
2022/09/21 02:30:25;;;;;;;1.90;0.47;;;;;;;22.68;32.03;100999.53;4738691;30;20108;-87
2022/09/21 02:33:11;;;;;;;0.40;0.40;;;;;;;22.65;32.09;101003.56;4728058;30;20089;-87
2022/09/21 02:36:00;;;;;;;0.40;0.40;;;;;;;22.71;32.28;101007.16;4760101;30;20081;-87
2022/09/21 02:38:33;;;;;;;0.75;0.60;;;;;;;22.72;32.07;101014.28;4738773;30;20186;-87
2022/09/21 02:41:18;;;;;;;0.82;0.43;;;;;;;22.72;31.96;101008.00;4756513;30;20028;-87
2022/09/21 02:44:05;;;;;;;0.50;0.50;;;;;;;22.72;31.95;101008.00;4766992;30;20035;-87
2022/09/21 02:46:46;;;;;;;0.40;0.40;;;;;;;22.72;31.98;101019.72;4739147;30;20045;-86
2022/09/21 02:49:17;;;;;;;1.02;0.40;;;;;;;22.68;32.09;101021.31;4759750;30;20397;-86
2022/09/21 02:51:49;;;;;;;0.65;0.50;;;;;;;22.67;31.93;101011.50;4740320;30;20201;-86
2022/09/21 02:54:20;;;;;;;0.40;0.40;;;;;;;22.67;31.95;101023.19;4735146;30;20032;-87
2022/09/21 02:56:47;;;;;;;0.40;0.40;;;;;;;22.71;31.94;101030.88;4759483;30;20088;-87
2022/09/21 02:59:13;;;;;;;0.40;0.40;;;;;;;22.68;31.84;101022.13;4727036;30;20036;-87
2022/09/21 03:01:39;;;;;;;0.40;0.40;;;;;;;22.72;32.02;101035.25;4736943;30;20052;-86
2022/09/21 03:04:04;;;;;;;0.50;0.50;;;;;;;22.71;31.85;101039.06;4758472;30;20034;-86
2022/09/21 03:06:32;;;;;;;0.40;0.40;;;;;;;22.55;31.87;101018.97;4735893;30;20088;-87
2022/09/21 03:08:58;;;;;;;0.50;0.50;;;;;;;22.63;32.10;101038.41;4745679;30;20046;-86
2022/09/21 03:11:24;;;;;;;0.40;0.40;;;;;;;22.48;32.19;101014.50;4757768;30;20035;-86
2022/09/21 03:13:50;;;;;;;1.02;0.52;;;;;;;22.57;31.93;101028.53;4735879;30;20059;-86
2022/09/21 03:16:16;;;;;;;0.73;0.50;;;;;;;22.59;32.14;101033.72;4737883;30;20051;-86
2022/09/21 03:18:43;;;;;;;0.68;0.35;;;;;;;22.62;32.06;101042.22;4734689;30;20050;-86
2022/09/21 03:21:12;;;;;;;0.55;0.32;;;;;;;22.62;32.05;101041.41;4744287;30;20028;-86
2022/09/21 03:23:38;;;;;;;0.50;0.40;;;;;;;22.61;31.92;101042.47;4759107;30;20575;-86
2022/09/21 03:26:03;;;;;;;0.40;0.40;;;;;;;;;;4734932;30;20488;-86
2022/09/21 03:28:29;;;;;;;0.63;0.40;;;;;;;22.54;32.01;101028.19;4744527;30;20059;-86
2022/09/21 03:30:54;;;;;;;0.52;0.40;;;;;;;22.61;31.92;101042.47;4737660;30;20035;-86
2022/09/21 03:33:20;;;;;;;0.47;0.47;;;;;;;22.59;32.09;101047.34;4732848;30;20035;-86
2022/09/21 03:35:49;;;;;;;0.50;0.50;;;;;;;22.58;31.98;101045.72;4735271;30;20032;-86
2022/09/21 03:38:15;;;;;;;0.38;0.38;;;;;;;22.65;32.04;101052.59;4736941;30;20054;-86
2022/09/21 03:40:46;;;;;;;0.30;0.30;;;;;;;22.67;31.86;101055.91;4724204;30;20146;-87
2022/09/21 03:43:12;;;;;;;0.35;0.35;;;;;;;22.63;31.98;101060.22;4735181;30;20040;-86
2022/09/21 03:45:40;;;;;;;0.55;0.40;;;;;;;22.63;31.99;101060.22;4726990;30;20833;-87
2022/09/21 03:48:05;;;;;;;2.40;0.65;;;;;;;22.62;31.97;101055.00;4740444;30;20049;-86
2022/09/21 03:50:40;;;;;;;0.50;0.50;;;;;;;22.56;31.87;101045.97;4719930;30;20409;-87
2022/09/21 03:53:06;;;;;;;0.35;0.35;;;;;;;22.50;31.91;101036.88;4755906;30;20028;-86
2022/09/21 03:55:32;;;;;;;1.02;0.40;;;;;;;22.53;31.96;101045.63;4719812;30;20042;-87
2022/09/21 03:57:57;;;;;;;0.47;0.47;;;;;;;22.51;31.84;101045.88;4737288;30;20149;-87
2022/09/21 04:00:23;;;;;;;0.40;0.40;;;;;;;22.66;32.04;101076.06;4734335;30;20047;-87
2022/09/21 04:02:49;;;;;;;0.90;0.45;;;;;;;22.61;31.79;101065.09;4756025;30;20097;-87
2022/09/21 04:05:15;;;;;;;0.40;0.40;;;;;;;22.68;31.88;101081.25;4715926;30;20042;-87
2022/09/21 04:07:41;;;;;;;0.47;0.40;;;;;;;22.57;31.89;101061.22;4722415;30;20032;-87
2022/09/21 04:10:11;;;;;;;0.43;0.43;;;;;;;22.64;31.83;101080.91;4757816;30;20116;-87
2022/09/21 04:12:38;;;;;;;0.60;0.60;;;;;;;22.52;32.02;101060.31;4720464;30;20094;-87
2022/09/21 04:15:06;;;;;;;0.52;0.52;;;;;;;22.44;31.76;101039.81;4728667;30;20044;-87
2022/09/21 04:17:32;;;;;;;0.40;0.40;;;;;;;22.41;32.01;101043.84;4721868;30;20031;-87
2022/09/21 04:19:58;;;;;;;0.70;0.50;;;;;;;22.43;31.90;101046.31;4736007;30;20047;-87
2022/09/21 04:22:24;;;;;;;0.98;0.47;;;;;;;22.62;31.89;101072.19;4746736;30;20610;-87
2022/09/21 04:24:50;;;;;;;0.70;0.40;;;;;;;22.62;31.69;101079.53;4760981;30;20437;-87
2022/09/21 04:27:16;;;;;;;0.73;0.55;;;;;;;22.52;31.69;101072.03;4725826;30;20047;-87
2022/09/21 04:29:43;;;;;;;0.50;0.50;;;;;;;22.61;31.68;101084.16;4720498;30;20071;-88
2022/09/21 04:32:09;;;;;;;0.40;0.40;;;;;;;22.67;31.73;101091.31;4743586;30;20142;-87
2022/09/21 04:34:36;;;;;;;0.40;0.40;;;;;;;22.58;31.90;101075.66;4730151;30;20036;-87
2022/09/21 04:37:01;;;;;;;1.25;0.50;;;;;;;22.69;31.86;101094.59;4726028;30;20031;-87
2022/09/21 04:39:29;;;;;;;0.50;0.40;;;;;;;22.58;31.69;101079.22;4745367;30;20039;-87
2022/09/21 04:41:55;;;;;;;0.52;0.52;;;;;;;22.60;31.74;101089.84;4729879;30;20043;-87
2022/09/21 04:44:21;;;;;;;0.50;0.50;;;;;;;22.66;31.61;101097.84;4742405;30;20031;-87
2022/09/21 04:46:46;;;;;;;0.95;0.40;;;;;;;22.65;31.78;101100.84;4747407;30;20408;-87
2022/09/21 04:49:12;;;;;;;0.50;0.50;;;;;;;22.68;31.72;101106.59;4732821;30;20032;-87
2022/09/21 04:51:38;;;;;;;0.93;0.52;;;;;;;22.63;31.84;101098.34;4739114;30;20475;-87
2022/09/21 04:54:03;;;;;;;0.40;0.40;;;;;;;22.56;31.78;101100.44;4737383;30;20142;-87
2022/09/21 04:56:29;;;;;;;0.93;0.60;;;;;;;22.63;31.68;101105.72;4738981;30;20038;-87
2022/09/21 04:58:55;;;;;;;0.70;0.60;;;;;;;22.66;31.75;101103.31;4747731;30;20121;-87
2022/09/21 05:01:20;;;;;;;0.40;0.40;;;;;;;22.61;31.71;101100.50;4747553;30;20040;-87
2022/09/21 05:03:46;;;;;;;0.50;0.50;;;;;;;22.58;31.88;101108.34;4742393;30;20035;-87
2022/09/21 05:06:14;;;;;;;0.50;0.40;;;;;;;22.57;31.78;101110.25;4744142;30;20501;-87
2022/09/21 05:11:24;;;;;;;0.77;0.45;;;;;;;22.56;31.68;101111.34;4746561;30;20038;-87
2022/09/21 05:13:49;;;;;;;2.58;0.50;;;;;;;22.61;31.73;101118.72;4746537;30;20039;-88
2022/09/21 05:16:15;;;;;;;0.60;0.40;;;;;;;22.66;31.45;101126.97;4742440;30;20067;-88
2022/09/21 05:18:41;;;;;;;1.27;0.57;;;;;;;22.58;31.77;101121.97;4730925;30;20040;-87
2022/09/21 05:21:08;;;;;;;0.55;0.55;;;;;;;22.59;31.80;101120.88;4750706;30;20570;-88
2022/09/21 05:23:33;;;;;;;1.17;0.68;;;;;;;22.65;31.70;101131.59;4745669;30;20046;-87
2022/09/21 05:25:59;;;;;;;0.65;0.50;;;;;;;22.59;31.67;101120.88;4764691;30;20111;-87
2022/09/21 05:28:25;;;;;;;0.73;0.50;;;;;;;22.65;31.83;101139.78;4736654;30;20189;-88
2022/09/21 05:31:04;;;;;;;1.15;0.50;;;;;;;22.59;31.74;101135.31;4743865;30;20038;-87
2022/09/21 05:33:30;;;;;;;0.50;0.50;;;;;;;22.67;31.89;101145.00;4745579;30;20040;-88
2022/09/21 05:36:04;;;;;;;0.40;0.40;;;;;;;22.68;31.66;101141.19;4739265;30;20555;-88
2022/09/21 05:38:30;;;;;;;1.65;0.68;;;;;;;22.65;31.48;101139.78;4752532;30;20517;-88
2022/09/21 05:40:56;;;;;;;0.63;0.45;;;;;;;22.61;31.66;101138.66;4724973;30;20035;-88
2022/09/21 05:43:22;;;;;;;0.30;0.30;;;;;;;22.63;31.63;101141.94;4729801;30;20094;-88
2022/09/21 05:45:57;;;;;;;0.60;0.60;;;;;;;22.57;31.73;101142.09;4744837;30;20452;-87
2022/09/21 05:48:26;;;;;;;0.43;0.43;;;;;;;22.62;31.65;101148.44;4724084;30;20090;-87
2022/09/21 05:50:57;;;;;;;1.02;0.50;;;;;;;22.65;31.61;101153.41;4745990;30;20043;-87
2022/09/21 05:53:56;;;;;;;0.60;0.57;;;;;;;22.66;31.74;101160.50;4756833;30;20035;-87
2022/09/21 05:56:23;;;;;;;0.68;0.50;;;;;;;22.66;31.69;101171.41;4761097;30;20023;-88
2022/09/21 05:59:14;;;;;;;0.40;0.40;;;;;;;22.66;31.67;101168.69;4764613;30;20123;-88
2022/09/21 06:02:07;;;;;;;0.50;0.50;;;;;;;22.69;31.79;101172.81;4757930;30;20122;-88
2022/09/21 06:04:33;;;;;;;1.08;0.60;;;;;;;22.66;31.83;101174.13;4756056;30;20031;-88
2022/09/21 06:07:01;;;;;;;0.70;0.60;;;;;;;22.57;31.54;101172.88;4739439;30;20112;-87
2022/09/21 06:09:26;;;;;;;0.95;0.57;;;;;;;22.60;31.59;101172.41;4724933;30;20517;-88
2022/09/21 06:11:52;;;;;;;0.50;0.50;;;;;;;22.60;31.83;101174.31;4721791;30;20214;-87
2022/09/21 06:14:25;;;;;;;0.50;0.50;;;;;;;22.61;31.72;101181.38;4732749;30;20027;-87
2022/09/21 06:16:51;;;;;;;0.50;0.50;;;;;;;22.61;32.01;101192.28;4745102;30;20313;-87
2022/09/21 06:19:16;;;;;;;0.50;0.50;;;;;;;22.65;31.64;101197.00;4736986;30;20130;-87
2022/09/21 06:21:42;;;;;;;0.85;0.50;;;;;;;22.65;31.66;101199.72;4734131;30;20042;-88
2022/09/21 06:24:08;;;;;;;0.40;0.40;;;;;;;22.60;31.65;101199.66;4730592;30;20081;-88
2022/09/21 06:26:33;;;;;;;0.50;0.50;;;;;;;22.58;31.71;101196.34;4743093;30;20039;-88
2022/09/21 06:28:59;;;;;;;1.00;0.60;;;;;;;22.61;31.69;101195.00;4727723;30;20040;-88
2022/09/21 06:31:28;;;;;;;1.38;0.50;;;;;;;22.61;31.71;101195.84;4728911;30;20456;-88
2022/09/21 06:33:53;;;;;;;2.67;0.60;;;;;;;22.60;31.72;101207.00;4729521;30;20071;-88
2022/09/21 06:36:19;;;;;;;1.08;0.57;;;;;;;22.59;31.76;101195.25;4747399;30;20170;-88
2022/09/21 06:38:44;;;;;;;0.63;0.57;;;;;;;22.48;31.83;101188.00;4760978;30;20039;-88
2022/09/21 06:41:10;;;;;;;1.10;0.70;;;;;;;22.56;31.65;101194.94;4746414;30;20032;-88
2022/09/21 06:43:36;;;;;;;0.60;0.60;;;;;;;22.57;31.80;101202.03;4740724;30;20035;-88
2022/09/21 06:46:02;;;;;;;0.63;0.40;;;;;;;22.61;31.57;101209.47;4736263;30;20074;-88
2022/09/21 06:48:28;;;;;;;0.63;0.50;;;;;;;22.57;31.91;101193.88;4737786;30;20032;-88
2022/09/21 06:50:58;;;;;;;0.77;0.60;;;;;;;22.58;31.79;101204.50;4748533;30;20524;-88
2022/09/21 06:53:24;;;;;;;0.70;0.55;;;;;;;22.42;31.73;101189.00;4723732;30;20036;-87
2022/09/21 06:55:50;;;;;;;0.60;0.60;;;;;;;22.43;31.88;101187.94;4735877;30;20027;-88
2022/09/21 06:58:16;;;;;;;0.70;0.70;;;;;;;22.39;31.80;101189.50;4744775;30;20508;-87
2022/09/21 07:00:41;;;;;;;0.80;0.80;;;;;;;22.51;31.82;101203.88;4754274;30;20083;-87
2022/09/21 07:03:10;;;;;;;0.85;0.60;;;;;;;22.48;31.83;101204.34;4742382;30;20036;-87
2022/09/21 07:05:36;;;;;;;1.30;0.80;;;;;;;22.53;31.74;101215.31;4742140;30;20545;-87
2022/09/21 07:08:02;;;;;;;0.63;0.60;;;;;;;22.57;31.67;101224.66;4744595;30;20588;-87
2022/09/21 07:10:27;;;;;;;0.70;0.70;;;;;;;22.57;31.58;101230.09;4731114;30;20131;-87
2022/09/21 07:12:53;;;;;;;0.50;0.50;;;;;;;22.49;31.72;101216.88;4740144;30;20559;-87
2022/09/21 07:15:20;;;;;;;1.17;0.77;;;;;;;22.47;31.55;101208.13;4721626;30;20068;-87
2022/09/21 07:17:46;;;;;;;0.60;0.50;;;;;;;22.46;31.79;101206.50;4739829;30;20088;-87
2022/09/21 07:20:11;;;;;;;0.50;0.50;;;;;;;22.53;31.66;101215.31;4757689;30;20040;-87
2022/09/21 07:22:37;;;;;;;0.60;0.60;;;;;;;22.46;31.72;101211.94;4721535;30;20155;-86
2022/09/21 07:25:03;;;;;;;0.85;0.70;;;;;;;22.43;31.90;101207.00;4754672;30;20566;-86
2022/09/21 07:27:29;;;;;;;0.75;0.60;;;;;;;22.55;31.83;101232.25;4735488;30;20051;-86
2022/09/21 07:29:55;;;;;;;0.90;0.70;;;;;;;22.49;31.78;101217.72;4737383;30;20057;-87
2022/09/21 07:32:20;;;;;;;0.73;0.70;;;;;;;22.47;31.75;101225.31;4762898;30;20059;-87
2022/09/21 07:34:46;;;;;;;1.48;1.08;;;;;;;22.36;31.94;101206.34;4735768;30;20036;-87
2022/09/21 07:37:12;;;;;;;1.38;0.80;;;;;;;22.46;31.82;101217.41;4721406;30;20131;-87
2022/09/21 07:39:38;;;;;;;1.38;0.93;;;;;;;22.47;32.02;101230.78;4741866;30;20044;-87
2022/09/21 07:42:05;;;;;;;0.52;0.52;;;;;;;22.36;31.88;101211.78;4760426;30;20042;-86
2022/09/21 07:44:30;;;;;;;0.75;0.60;;;;;;;22.45;32.03;101222.00;4729131;30;20425;-87
2022/09/21 07:46:56;;;;;;;0.82;0.75;;;;;;;22.45;31.73;101232.06;4750095;30;20035;-87
2022/09/21 07:49:21;;;;;;;1.02;0.90;;;;;;;22.45;31.90;101222.00;4736737;30;20038;-86
2022/09/21 07:51:47;;;;;;;1.38;0.65;;;;;;;22.49;31.67;101234.06;4724972;30;20082;-87
2022/09/21 07:54:14;;;;;;;0.60;0.60;;;;;;;22.49;31.66;101241.41;4720904;30;20600;-87
2022/09/21 07:56:41;;;;;;;1.42;0.70;;;;;;;22.44;31.62;101236.69;4731310;30;20035;-87
2022/09/21 07:59:07;;;;;;;1.20;0.90;;;;;;;22.50;31.76;101238.44;4741229;30;20486;-87
2022/09/21 08:01:37;;;;;;;1.17;0.60;;;;;;;22.50;31.91;101251.22;4719771;30;20097;-87
2022/09/21 08:04:03;;;;;;;1.27;0.80;;;;;;;22.43;31.79;101236.94;4721176;30;20074;-86
2022/09/21 08:06:31;;;;;;;0.80;0.80;;;;;;;22.50;31.87;101256.69;4743139;30;20606;-86
2022/09/21 08:09:00;;;;;;;0.80;0.80;;;;;;;22.43;31.79;101234.22;4747756;30;20510;-86
2022/09/21 08:11:26;;;;;;;0.73;0.60;;;;;;;22.45;31.90;101242.97;4734417;30;20034;-87
2022/09/21 08:13:52;;;;;;;0.70;0.70;;;;;;;22.46;31.75;101239.19;4741135;30;20036;-87
2022/09/21 08:16:18;;;;;;;0.70;0.70;;;;;;;22.42;31.99;101243.44;4728576;30;20644;-87
2022/09/21 08:18:44;;;;;;;0.65;0.65;;;;;;;22.34;31.77;101224.81;4721845;30;20142;-87
2022/09/21 08:21:09;;;;;;;0.60;0.60;;;;;;;22.45;31.97;101237.53;4744819;30;20109;-87
2022/09/21 08:23:39;;;;;;;0.60;0.60;;;;;;;22.35;32.01;101243.59;4741870;30;20047;-86
2022/09/21 08:26:06;;;;;;;1.17;0.65;;;;;;;22.34;31.92;101233.81;4729538;30;20035;-87
2022/09/21 08:28:32;;;;;;;0.95;0.85;;;;;;;22.41;32.06;101247.25;4730477;30;20035;-87
2022/09/21 08:31:08;;;;;;;0.70;0.70;;;;;;;22.45;31.77;101259.31;4752329;30;20024;-87
2022/09/21 08:33:34;;;;;;;0.60;0.60;;;;;;;22.15;32.11;101203.22;4724371;30;20044;-87
2022/09/21 08:36:00;;;;;;;0.65;0.63;;;;;;;22.04;31.95;101195.94;4736178;30;20031;-87
2022/09/21 08:38:26;;;;;;;0.90;0.80;;;;;;;22.30;31.99;101230.75;4734409;30;20036;-87
2022/09/21 08:40:52;;;;;;;0.43;0.43;;;;;;;22.23;31.96;101223.75;4736044;30;20070;-87
2022/09/21 08:43:25;;;;;;;0.55;0.55;;;;;;;22.47;31.89;101262.59;4742378;30;20031;-87
2022/09/21 08:45:51;;;;;;;0.90;0.63;;;;;;;22.49;31.82;101265.91;4745836;30;20414;-87
2022/09/21 08:48:22;;;;;;;1.83;0.65;;;;;;;22.48;32.02;101256.09;4742762;30;20039;-87
2022/09/21 08:51:09;;;;;;;0.95;0.80;;;;;;;22.48;32.00;101264.28;4724349;30;20046;-87
2022/09/21 08:53:40;;;;;;;0.90;0.90;;;;;;;22.42;31.98;101254.34;4760486;30;20048;-87
2022/09/21 08:56:12;;;;;;;0.85;0.70;;;;;;;22.45;32.01;101259.31;4743188;30;20291;-87
2022/09/21 08:58:39;;;;;;;0.60;0.60;;;;;;;22.42;31.95;101244.31;4744387;30;20024;-87
2022/09/21 09:01:23;;;;;;;0.73;0.73;;;;;;;22.50;31.97;101262.94;4733834;30;20479;-87
2022/09/21 09:04:26;;;;;;;1.25;0.80;;;;;;;22.52;31.93;101262.69;4765285;30;20036;-87
2022/09/21 09:07:15;;;;;;;0.80;0.80;;;;;;;22.50;31.97;101251.22;4764391;30;20039;-87
2022/09/21 09:09:50;;;;;;;0.80;0.73;;;;;;;22.52;31.97;101268.16;4734107;30;20028;-87
2022/09/21 09:12:35;;;;;;;0.98;0.80;;;;;;;22.52;31.89;101259.97;4764516;30;20032;-87
2022/09/21 09:15:13;;;;;;;1.50;0.90;;;;;;;22.55;31.78;101258.66;4744944;30;20093;-87
2022/09/21 09:18:16;;;;;;;1.38;0.80;;;;;;;22.51;32.00;101258.34;4747769;30;20111;-87
2022/09/21 09:20:46;;;;;;;1.27;0.85;;;;;;;22.54;31.83;101263.28;4716308;30;20037;-87
2022/09/21 09:23:42;;;;;;;0.70;0.70;;;;;;;22.48;31.93;101247.94;4759590;30;20038;-87
2022/09/21 09:26:35;;;;;;;0.98;0.73;;;;;;;22.54;31.95;101263.28;4743363;30;20067;-87
2022/09/21 09:29:05;;;;;;;2.08;0.70;;;;;;;22.47;31.97;101251.72;4741103;30;20071;-87
2022/09/21 09:31:31;;;;;;;0.70;0.70;;;;;;;22.41;32.02;101245.34;4722449;30;20036;-87
2022/09/21 09:33:59;;;;;;;1.08;0.80;;;;;;;22.52;32.18;101264.59;4722899;30;20028;-87
2022/09/21 09:36:28;;;;;;;1.15;1.00;;;;;;;22.55;32.07;101264.13;4747957;30;20024;-87
2022/09/21 09:38:56;;;;;;;2.17;0.80;;;;;;;22.52;32.03;101270.88;4753841;30;20077;-87
2022/09/21 09:41:45;;;;;;;1.38;0.85;;;;;;;22.54;32.02;101271.44;4735165;30;20051;-87
2022/09/21 09:44:33;;;;;;;0.70;0.70;;;;;;;22.51;32.10;101263.78;4754177;30;20035;-87
2022/09/21 09:47:02;;;;;;;1.00;0.90;;;;;;;22.52;32.14;101270.88;4741182;30;20068;-87
2022/09/21 09:49:30;;;;;;;0.60;0.60;;;;;;;22.52;32.09;101272.78;4752071;30;20032;-86
2022/09/21 09:51:55;;;;;;;0.88;0.70;;;;;;;22.52;32.15;101262.69;4750831;30;20551;-86
2022/09/21 09:54:22;;;;;;;0.88;0.80;;;;;;;22.47;32.05;101263.47;4742183;30;20039;-86
2022/09/21 09:56:47;;;;;;;0.70;0.70;;;;;;;22.52;32.15;101270.88;4727623;30;20039;-86
2022/09/21 09:59:34;;;;;;;0.70;0.70;;;;;;;22.56;32.12;101271.19;4736578;30;20043;-87
2022/09/21 10:02:19;;;;;;;0.80;0.80;;;;;;;22.51;32.03;101271.97;4741687;30;20510;-87
2022/09/21 10:05:05;;;;;;;0.68;0.60;;;;;;;22.53;32.07;101277.16;4753341;30;20035;-86
2022/09/21 10:07:46;;;;;;;0.80;0.80;;;;;;;22.49;31.95;101274.06;4725164;30;20036;-87
2022/09/21 10:10:32;;;;;;;0.88;0.55;;;;;;;22.53;32.11;101283.44;4749218;30;20836;-87
2022/09/21 10:13:26;;;;;;;1.13;0.70;;;;;;;22.48;32.03;101275.16;4753470;30;20086;-87
2022/09/21 10:15:58;;;;;;;1.23;0.77;;;;;;;22.55;31.99;101286.72;4739979;30;20093;-87
2022/09/21 10:18:45;;;;;;;0.70;0.70;;;;;;;22.47;31.84;101274.34;4750477;30;20039;-87
2022/09/21 10:21:19;;;;;;;0.50;0.50;;;;;;;22.57;31.94;101281.03;4757658;30;20101;-87
2022/09/21 10:24:01;;;;;;;0.77;0.50;;;;;;;22.54;31.90;101268.72;4745316;30;20115;-87
2022/09/21 10:26:31;;;;;;;0.68;0.68;;;;;;;22.50;32.03;101267.56;4745057;30;20215;-86
2022/09/21 10:29:01;;;;;;;0.60;0.60;;;;;;;22.57;32.05;101284.56;4736959;30;20035;-87
2022/09/21 10:31:28;;;;;;;0.75;0.75;;;;;;;22.55;31.96;101286.72;4728599;30;20046;-86
2022/09/21 10:34:13;;;;;;;0.70;0.70;;;;;;;22.56;31.87;101293.84;4730064;30;20039;-86
2022/09/21 10:36:38;;;;;;;1.30;0.60;;;;;;;22.50;31.81;101275.75;4740566;30;20062;-87
2022/09/21 10:39:17;;;;;;;0.40;0.40;;;;;;;22.57;31.66;101279.13;4746434;30;20093;-86
2022/09/21 10:41:50;;;;;;;0.82;0.82;;;;;;;22.62;31.80;101286.56;4744446;30;20048;-86
2022/09/21 10:44:19;;;;;;;0.60;0.60;;;;;;;22.57;31.79;101284.56;4726083;30;20025;-86
2022/09/21 10:46:46;;;;;;;1.00;0.60;;;;;;;22.52;31.94;101281.75;4722161;30;20059;-87
2022/09/21 10:49:25;;;;;;;0.50;0.45;;;;;;;22.58;31.85;101291.69;4740195;30;20020;-87
2022/09/21 10:51:53;;;;;;;0.63;0.63;;;;;;;22.44;31.87;101265.84;4733967;30;20034;-86
2022/09/21 10:54:28;;;;;;;0.70;0.60;;;;;;;22.49;31.87;101287.69;4726628;30;20277;-86
2022/09/21 10:56:58;;;;;;;0.50;0.50;;;;;;;22.46;31.83;101283.59;4745852;30;20039;-86
2022/09/21 10:59:28;;;;;;;0.60;0.60;;;;;;;22.52;31.79;101284.50;4722044;30;20051;-86
2022/09/21 11:01:56;;;;;;;0.77;0.60;;;;;;;22.55;31.75;101286.72;4724641;30;20135;-85
2022/09/21 11:04:40;;;;;;;0.60;0.60;;;;;;;22.60;31.76;101299.63;4744247;30;20035;-86
2022/09/21 11:07:33;;;;;;;;;;;;;;;22.61;31.72;101314.88;4739490;30;20047;-83
2022/09/21 11:10:20;;;;;;;0.57;0.57;;;;;;;22.63;31.71;101316.28;4755819;30;20400;-85
2022/09/21 11:12:58;;;;;;;0.60;0.60;;;;;;;22.62;31.75;101308.38;4765655;30;20070;-85
2022/09/21 11:15:34;;;;;;;1.05;0.77;;;;;;;22.59;31.79;101309.66;4760303;30;20170;-85
2022/09/21 11:18:17;;;;;;;2.13;0.70;;;;;;;22.64;31.64;101320.66;4761714;30;20114;-85
2022/09/21 11:20:50;;;;;;;0.68;0.60;;;;;;;22.65;31.49;101311.44;4744806;30;20135;-85
2022/09/21 11:23:39;;;;;;;0.68;0.47;;;;;;;22.59;31.67;101312.38;4737766;30;20039;-85
2022/09/21 11:26:29;;;;;;;1.20;0.50;;;;;;;22.57;31.72;101306.38;4760141;30;20122;-85
2022/09/21 11:29:05;;;;;;;0.50;0.50;;;;;;;22.60;31.70;101314.06;4751583;30;20042;-85
2022/09/21 11:31:40;;;;;;;1.38;0.60;;;;;;;22.58;31.78;101307.22;4743151;30;20031;-85
2022/09/21 11:34:47;;;;;;;0.55;0.55;;;;;;;22.62;31.56;101314.63;4742399;30;20027;-85
2022/09/21 11:37:44;;;;;;;1.05;0.70;;;;;;;22.62;31.58;101314.63;4739829;30;20032;-85
2022/09/21 11:40:38;;;;;;;0.73;0.73;;;;;;;22.62;31.50;101309.19;4759253;30;20109;-85
2022/09/21 11:44:02;;;;;;;0.63;0.57;;;;;;;22.63;31.40;101307.31;4729875;30;20477;-85
2022/09/21 11:47:06;;;;;;;0.60;0.50;;;;;;;22.66;31.60;101309.53;4738451;30;20063;-85
2022/09/21 11:49:43;;;;;;;0.70;0.70;;;;;;;;;;4764138;30;20032;-85